Kezdőlap
METAR-TAF:

METAR-TAF

Repülőterek :

Ungvári nemzetközi repülőtér

Ungvár, Ukrajna

földrajzi szélesség: 48-38-05N, földrajzi hosszúság: 022-15-53E, magasság: 117 m

Jelenlegi meteorológiai megfigyelések

A jelentés 2 órával és 20 perccel ezelõtt készült, 19:00 UTC
Szélcsend
Hőmérséklet 22°C
Páratartalom 69%
Légköri nyomás 1020 hPa
Látótávolság 10 km, vagy több

METAR: UKLU 271900Z 00000MPS 9999 NSC 22/16 Q1020 NOSIG

Idő: 00:20 (21:20 UTC)


TAF: hiányzik

Meteorológiai megfigyelések és előrejelzések több, mint 4000 repülőtéren (METAR és TAF jelentéseket).

A térképen piros és sárga pontok jelzik az elérhető meteorológiai állomásokat.

Mozgassa az egeret a pont fölött, hogy megjelenjen az állomás neve.

Azután kattintson az időjárási megfigyelések és előrejelzések megtekintéséhez.

A térkép megváltoztatása: kattintson a fekete keresztel jelölt zöld gombra ráközelítéshez, a vonallal jelölt zöld gombra távolításhoz, vagy a zöld nyilakra a szomszédos térképek eléréséhez.


METAR-TAF: